createdAt,value
2018-09-10T00:03:56.254Z,100451.73
2018-09-10T00:07:59.993Z,100443.47
2018-09-10T00:12:03.962Z,100444.05
2018-09-10T00:16:07.877Z,100434.36
2018-09-10T00:20:12.530Z,100442.45
2018-09-10T00:24:16.102Z,100443.89
2018-09-10T00:28:19.714Z,100445.34
2018-09-10T00:32:23.385Z,100442.38
2018-09-10T00:36:26.950Z,100453.99
2018-09-10T00:40:30.782Z,100459.91
2018-09-10T00:44:34.270Z,100462.16
2018-09-10T00:48:37.912Z,100463.53
2018-09-10T00:52:41.439Z,100462.28
2018-09-10T00:56:45.130Z,100463.22
2018-09-10T01:00:48.810Z,100461.05
2018-09-10T01:04:52.375Z,100464.22
2018-09-10T01:08:57.234Z,100465.22
2018-09-10T01:13:00.834Z,100466.66
2018-09-10T01:17:04.457Z,100470.31
2018-09-10T01:21:07.960Z,100466.87
2018-09-10T01:25:11.573Z,100476.70
2018-09-10T01:29:15.407Z,100463.45
2018-09-10T01:33:24.263Z,100443.56
2018-09-10T01:37:27.891Z,100442.25
2018-09-10T01:41:31.519Z,100445.40
2018-09-10T01:45:35.069Z,100439.19
2018-09-10T01:49:38.836Z,100445.85
2018-09-10T01:53:42.381Z,100444.59
2018-09-10T01:57:46.095Z,100442.86
2018-09-10T02:01:49.700Z,100444.72
2018-09-10T02:05:53.479Z,100441.70
2018-09-10T02:09:57.169Z,100439.52
2018-09-10T02:14:00.822Z,100437.74
2018-09-10T02:18:04.348Z,100443.11
2018-09-10T02:22:08.012Z,100447.18
2018-09-10T02:26:11.715Z,100440.58
2018-09-10T02:30:15.380Z,100432.67
2018-09-10T02:34:18.977Z,100429.61
2018-09-10T02:38:22.622Z,100427.89
2018-09-10T02:42:26.227Z,100438.08
2018-09-10T02:46:29.902Z,100443.45
2018-09-10T02:50:33.440Z,100443.56
2018-09-10T02:54:37.103Z,100447.17
2018-09-10T02:58:40.780Z,100443.28
2018-09-10T03:02:44.394Z,100442.48
2018-09-10T03:06:48.135Z,100434.14
2018-09-10T03:10:51.663Z,100431.06
2018-09-10T03:14:57.222Z,100432.87
2018-09-10T03:19:00.903Z,100430.66
2018-09-10T03:23:04.637Z,100436.41
2018-09-10T03:27:08.310Z,100431.14
2018-09-10T03:31:11.814Z,100425.39
2018-09-10T03:35:15.392Z,100432.06
2018-09-10T03:39:18.912Z,100435.66
2018-09-10T03:43:22.448Z,100435.67
2018-09-10T03:47:26.208Z,100427.73
2018-09-10T03:51:29.929Z,100437.97
2018-09-10T03:55:33.471Z,100438.89
2018-09-10T03:59:37.357Z,100436.31
2018-09-10T04:03:40.922Z,100450.95
2018-09-10T04:07:44.622Z,100457.19
2018-09-10T04:11:48.458Z,100455.48
2018-09-10T04:15:52.075Z,100463.45
2018-09-10T04:20:00.735Z,100469.25
2018-09-10T04:24:04.299Z,100469.67
2018-09-10T04:28:08.011Z,100466.60
2018-09-10T04:32:11.593Z,100462.62
2018-09-10T04:36:15.366Z,100466.61
2018-09-10T04:40:19.186Z,100464.91
2018-09-10T04:44:22.839Z,100469.80
2018-09-10T04:48:26.696Z,100472.92
2018-09-10T04:52:30.215Z,100463.63
2018-09-10T04:56:33.748Z,100467.14
2018-09-10T05:00:37.231Z,100464.05
2018-09-10T05:04:41.068Z,100474.22
2018-09-10T05:08:44.746Z,100483.06
2018-09-10T05:12:48.415Z,100479.96
2018-09-10T05:16:51.981Z,100487.92
2018-09-10T05:20:55.483Z,100490.14
2018-09-10T05:24:59.273Z,100499.00
2018-09-10T05:29:02.978Z,100509.62
2018-09-10T05:33:07.637Z,100508.28
2018-09-10T05:37:11.243Z,100508.66
2018-09-10T05:41:14.997Z,100504.20
2018-09-10T05:45:18.617Z,100505.51
2018-09-10T05:49:22.359Z,100522.75
2018-09-10T05:53:25.859Z,100519.61
2018-09-10T05:57:29.600Z,100521.35
2018-09-10T06:01:33.046Z,100519.14
2018-09-10T06:05:37.519Z,100522.19
2018-09-10T06:09:41.188Z,100526.16
2018-09-10T06:13:45.875Z,100521.19
2018-09-10T06:17:49.416Z,100526.01
2018-09-10T06:21:52.943Z,100526.82
2018-09-10T06:25:56.399Z,100530.69
2018-09-10T06:29:59.899Z,100527.91
2018-09-10T06:34:03.547Z,100539.30
2018-09-10T06:38:07.430Z,100535.23
2018-09-10T06:42:10.879Z,100539.47
2018-09-10T06:46:14.796Z,100545.54
2018-09-10T06:50:18.675Z,100548.02
2018-09-10T06:54:22.334Z,100554.86
2018-09-10T06:58:26.021Z,100547.47
2018-09-10T07:02:29.659Z,100548.98
2018-09-10T07:06:33.304Z,100549.66
2018-09-10T07:10:37.022Z,100556.48
2018-09-10T07:14:40.589Z,100559.84
2018-09-10T07:18:44.417Z,100556.97
2018-09-10T07:22:48.474Z,100558.84
2018-09-10T07:26:52.027Z,100560.81
2018-09-10T07:30:55.788Z,100552.25
2018-09-10T07:34:59.468Z,100553.77
2018-09-10T07:39:03.080Z,100560.55
2018-09-10T07:43:06.744Z,100563.22
2018-09-10T07:47:10.408Z,100563.75
2018-09-10T07:51:13.928Z,100562.88
2018-09-10T07:55:17.732Z,100571.91
2018-09-10T07:59:21.266Z,100572.37
2018-09-10T08:03:24.799Z,100574.19
2018-09-10T08:07:28.455Z,100577.47
2018-09-10T08:11:33.244Z,100582.17
2018-09-10T08:15:36.839Z,100578.48
2018-09-10T08:19:40.627Z,100570.62
2018-09-10T08:23:44.118Z,100564.09
2018-09-10T08:27:47.786Z,100560.59
2018-09-10T08:31:51.252Z,100566.41
2018-09-10T08:35:55.330Z,100563.10
2018-09-10T08:39:58.866Z,100564.03
2018-09-10T08:44:02.661Z,100560.62
2018-09-10T08:48:06.447Z,100553.02
2018-09-10T08:52:09.941Z,100562.70
2018-09-10T08:56:13.701Z,100568.71
2018-09-10T09:00:17.211Z,100572.95
2018-09-10T09:04:21.031Z,100571.05
2018-09-10T09:08:25.771Z,100573.47
2018-09-10T09:12:29.250Z,100566.41
2018-09-10T09:16:32.867Z,100560.98
2018-09-10T09:20:36.649Z,100562.73
2018-09-10T09:24:40.184Z,100562.06
2018-09-10T09:28:43.855Z,100564.37
2018-09-10T09:32:47.801Z,100558.52
2018-09-10T09:36:56.484Z,100565.51
2018-09-10T09:41:05.335Z,100550.39
2018-09-10T09:45:14.198Z,100542.41
2018-09-10T09:49:18.093Z,100540.24
2018-09-10T09:53:22.017Z,100544.08
2018-09-10T09:57:25.568Z,100532.86
2018-09-10T10:01:34.409Z,100539.27
2018-09-10T10:05:37.921Z,100538.77
2018-09-10T10:09:41.747Z,100540.86
2018-09-10T10:13:45.352Z,100534.50
2018-09-10T10:17:48.979Z,100524.91
2018-09-10T10:21:52.778Z,100524.83
2018-09-10T10:25:56.356Z,100529.02
2018-09-10T10:30:00.024Z,100535.08
2018-09-10T10:34:04.098Z,100518.42
2018-09-10T10:38:07.866Z,100511.30
2018-09-10T10:42:12.434Z,100516.31
2018-09-10T10:46:16.183Z,100515.64
2018-09-10T10:50:19.639Z,100505.14
2018-09-10T10:54:23.139Z,100502.22
2018-09-10T10:58:26.744Z,100495.48
2018-09-10T11:02:30.574Z,100498.53
2018-09-10T11:06:35.296Z,100490.31
2018-09-10T11:10:38.927Z,100488.70
2018-09-10T11:14:42.475Z,100485.46
2018-09-10T11:18:46.084Z,100483.73
2018-09-10T11:22:50.072Z,100486.55
2018-09-10T11:26:53.591Z,100484.07
2018-09-10T11:30:57.254Z,100472.02
2018-09-10T11:35:00.883Z,100476.68
2018-09-10T11:39:05.751Z,100478.44
2018-09-10T11:43:09.311Z,100476.75
2018-09-10T11:47:12.840Z,100471.98
2018-09-10T11:51:17.479Z,100468.34
2018-09-10T11:55:21.255Z,100464.33
2018-09-10T11:59:24.789Z,100459.86
2018-09-10T12:03:28.699Z,100453.14
2018-09-10T12:07:32.245Z,100440.92
2018-09-10T12:11:35.972Z,100443.55
2018-09-10T12:15:39.481Z,100438.16
2018-09-10T12:19:43.083Z,100433.96
2018-09-10T12:23:46.539Z,100436.10
2018-09-10T12:27:50.047Z,100438.33
2018-09-10T12:31:53.707Z,100431.21
2018-09-10T12:35:58.189Z,100428.97
2018-09-10T12:40:01.787Z,100431.77
2018-09-10T12:44:05.826Z,100429.86
2018-09-10T12:48:10.543Z,100426.53
2018-09-10T12:52:13.996Z,100425.89
2018-09-10T12:56:17.674Z,100424.92
2018-09-10T13:00:21.187Z,100432.94
2018-09-10T13:04:24.976Z,100421.35
2018-09-10T13:08:29.667Z,100426.60
2018-09-10T13:12:33.164Z,100416.21
2018-09-10T13:16:36.759Z,100406.86
2018-09-10T13:20:40.679Z,100406.86
2018-09-10T13:24:44.344Z,100408.21
2018-09-10T13:28:48.307Z,100399.48
2018-09-10T13:32:51.811Z,100392.25
2018-09-10T13:36:55.455Z,100391.03
2018-09-10T13:40:59.359Z,100389.39
2018-09-10T13:45:03.841Z,100389.63
2018-09-10T13:49:08.430Z,100386.10
2018-09-10T13:53:12.014Z,100378.59
2018-09-10T13:57:15.655Z,100389.05
2018-09-10T14:01:19.366Z,100377.31
2018-09-10T14:05:23.221Z,100385.70
2018-09-10T14:09:26.898Z,100384.36
2018-09-10T14:13:30.743Z,100382.00
2018-09-10T14:17:34.391Z,100378.96
2018-09-10T14:21:38.082Z,100383.27
2018-09-10T14:25:41.694Z,100376.27
2018-09-10T14:29:45.337Z,100377.31
2018-09-10T14:33:48.991Z,100376.19
2018-09-10T14:37:52.555Z,100370.30
2018-09-10T14:41:56.226Z,100365.88
2018-09-10T14:45:59.974Z,100356.36
2018-09-10T14:50:04.293Z,100368.42
2018-09-10T14:54:08.079Z,100373.27
2018-09-10T14:58:11.698Z,100364.12
2018-09-10T15:02:15.379Z,100358.16
2018-09-10T15:06:19.095Z,100353.09
2018-09-10T15:10:23.071Z,100357.30
2018-09-10T15:14:26.831Z,100358.27
2018-09-10T15:18:30.495Z,100357.86
2018-09-10T15:22:33.968Z,100357.08
2018-09-10T15:26:37.613Z,100348.19
2018-09-10T15:30:41.493Z,100350.48
2018-09-10T15:34:46.271Z,100346.02
2018-09-10T15:38:50.178Z,100340.40
2018-09-10T15:42:53.786Z,100335.56
2018-09-10T15:46:57.469Z,100343.09
2018-09-10T15:51:01.642Z,100348.72
2018-09-10T15:55:05.342Z,100350.97
2018-09-10T15:59:09.537Z,100350.06
2018-09-10T16:03:13.445Z,100348.34
2018-09-10T16:07:17.108Z,100343.40
2018-09-10T16:11:24.218Z,100350.06
2018-09-10T16:15:29.704Z,100351.19
2018-09-10T16:19:33.356Z,100360.78
2018-09-10T16:23:36.932Z,100363.80
2018-09-10T16:27:40.580Z,100358.19
2018-09-10T16:31:44.263Z,100356.05
2018-09-10T16:35:48.235Z,100358.44
2018-09-10T16:39:51.951Z,100358.35
2018-09-10T16:43:55.630Z,100354.05
2018-09-10T16:47:59.131Z,100355.93
2018-09-10T16:52:03.032Z,100356.60
2018-09-10T16:56:06.606Z,100359.75
2018-09-10T17:00:10.257Z,100356.47
2018-09-10T17:04:13.863Z,100356.69
2018-09-10T17:08:17.583Z,100357.41
2018-09-10T17:12:21.136Z,100350.98
2018-09-10T17:16:26.933Z,100360.23
2018-09-10T17:20:30.523Z,100360.02
2018-09-10T17:24:34.525Z,100364.50
2018-09-10T17:28:38.424Z,100367.08
2018-09-10T17:32:43.395Z,100366.23
2018-09-10T17:36:47.015Z,100362.45
2018-09-10T17:40:50.791Z,100370.89
2018-09-10T17:44:54.495Z,100373.52
2018-09-10T17:48:59.474Z,100375.16
2018-09-10T17:53:03.634Z,100377.72
2018-09-10T17:57:07.342Z,100385.30
2018-09-10T18:01:11.055Z,100382.89
2018-09-10T18:05:14.744Z,100396.59
2018-09-10T18:09:18.610Z,100393.22
2018-09-10T18:17:49.925Z,100401.47
2018-09-10T18:21:53.585Z,100392.52
2018-09-10T18:25:57.325Z,100390.48
2018-09-10T18:30:01.164Z,100402.24
2018-09-10T18:34:06.751Z,100403.80
2018-09-10T18:38:10.551Z,100401.88
2018-09-10T18:42:15.103Z,100413.27
2018-09-10T18:46:18.829Z,100418.02
2018-09-10T18:50:22.521Z,100418.38
2018-09-10T18:54:26.144Z,100417.27
2018-09-10T18:58:29.839Z,100410.80
2018-09-10T19:02:34.359Z,100413.66
2018-09-10T19:06:38.468Z,100419.38
2018-09-10T19:10:42.507Z,100416.05
2018-09-10T19:14:48.062Z,100415.84
2018-09-10T19:18:51.813Z,100405.79
2018-09-10T19:22:55.427Z,100409.59
2018-09-10T19:26:59.152Z,100417.32
2018-09-10T19:31:03.185Z,100426.43
2018-09-10T19:35:06.707Z,100435.50
2018-09-10T19:39:11.872Z,100435.64
2018-09-10T19:43:15.646Z,100432.23
2018-09-10T19:47:19.312Z,100446.67
2018-09-10T19:51:23.207Z,100448.25
2018-09-10T19:55:27.104Z,100451.84
2018-09-10T19:59:31.104Z,100457.31
2018-09-10T20:03:34.781Z,100458.31
2018-09-10T20:07:38.440Z,100462.44
2018-09-10T20:11:42.140Z,100457.64
2018-09-10T20:15:45.895Z,100457.78
2018-09-10T20:19:49.480Z,100449.09
2018-09-10T20:23:53.330Z,100450.11
2018-09-10T20:27:56.908Z,100450.20
2018-09-10T20:32:00.741Z,100452.03
2018-09-10T20:36:04.412Z,100454.37
2018-09-10T20:40:08.304Z,100450.06
2018-09-10T20:44:11.885Z,100443.53
2018-09-10T20:48:15.512Z,100447.17
2018-09-10T20:52:19.311Z,100448.98
2018-09-10T20:56:22.972Z,100450.89
2018-09-10T21:00:26.719Z,100447.44
2018-09-10T21:04:30.459Z,100454.19
2018-09-10T21:08:34.111Z,100448.88
2018-09-10T21:12:37.904Z,100444.50
2018-09-10T21:16:41.824Z,100446.33
2018-09-10T21:20:45.366Z,100446.33
2018-09-10T21:24:48.947Z,100448.62
2018-09-10T21:28:52.640Z,100452.21
2018-09-10T21:32:56.209Z,100451.39
2018-09-10T21:36:59.732Z,100443.87
2018-09-10T21:41:03.228Z,100446.16
2018-09-10T21:45:06.863Z,100451.17
2018-09-10T21:49:10.543Z,100451.73
2018-09-10T21:53:14.194Z,100459.39
2018-09-10T21:57:18.142Z,100456.31
2018-09-10T22:01:21.644Z,100460.42
2018-09-10T22:05:25.190Z,100460.98
2018-09-10T22:09:28.926Z,100457.56
2018-09-10T22:13:32.508Z,100458.64
2018-09-10T22:17:36.171Z,100464.52
2018-09-10T22:21:40.022Z,100463.27
2018-09-10T22:25:43.550Z,100461.66
2018-09-10T22:29:47.146Z,100451.55
2018-09-10T22:33:50.755Z,100454.31
2018-09-10T22:37:54.829Z,100466.44
2018-09-10T22:41:59.416Z,100466.52
2018-09-10T22:46:03.115Z,100459.98
2018-09-10T22:50:07.242Z,100461.02
2018-09-10T22:54:11.052Z,100462.04
2018-09-10T22:58:14.689Z,100466.09
2018-09-10T23:02:18.287Z,100466.64
2018-09-10T23:06:21.903Z,100464.05
2018-09-10T23:10:25.586Z,100464.56
2018-09-10T23:14:29.223Z,100459.67
2018-09-10T23:18:32.813Z,100465.98
2018-09-10T23:22:36.477Z,100456.21
2018-09-10T23:26:41.125Z,100455.86
2018-09-10T23:30:44.829Z,100463.89
2018-09-10T23:34:48.510Z,100457.20
2018-09-10T23:38:52.092Z,100452.44
2018-09-10T23:42:55.813Z,100446.77
2018-09-10T23:46:59.280Z,100445.02
2018-09-10T23:51:03.094Z,100445.47
2018-09-10T23:55:06.925Z,100453.45
2018-09-10T23:59:10.470Z,100452.55
